sensor_id;sensor_type;location;lat;lon;timestamp;P1;durP1;ratioP1;P2;durP2;ratioP2
55220;SDS011;41089;51.448;6.604;2023-04-29T00:05:14;47.53;;;32.88;;
55220;SDS011;41089;51.448;6.604;2023-04-29T00:11:15;45.88;;;31.67;;
55220;SDS011;41089;51.448;6.604;2023-04-29T00:17:15;51.58;;;35.38;;
55220;SDS011;41089;51.448;6.604;2023-04-29T00:23:16;60.28;;;39.85;;
55220;SDS011;41089;51.448;6.604;2023-04-29T00:29:16;64.43;;;41.42;;
55220;SDS011;41089;51.448;6.604;2023-04-29T00:35:17;62.70;;;40.03;;
55220;SDS011;41089;51.448;6.604;2023-04-29T00:41:18;74.97;;;43.73;;
55220;SDS011;41089;51.448;6.604;2023-04-29T00:47:18;75.28;;;43.97;;
55220;SDS011;41089;51.448;6.604;2023-04-29T00:53:19;88.40;;;48.50;;
55220;SDS011;41089;51.448;6.604;2023-04-29T00:59:20;81.80;;;46.13;;
55220;SDS011;41089;51.448;6.604;2023-04-29T01:05:20;78.05;;;44.53;;
55220;SDS011;41089;51.448;6.604;2023-04-29T01:11:21;76.07;;;43.58;;
55220;SDS011;41089;51.448;6.604;2023-04-29T01:17:24;83.65;;;44.13;;
55220;SDS011;41089;51.448;6.604;2023-04-29T01:23:26;88.97;;;43.92;;
55220;SDS011;41089;51.448;6.604;2023-04-29T01:48:23;83.37;;;42.17;;
55220;SDS011;41089;51.448;6.604;2023-04-29T01:54:23;86.18;;;41.90;;
55220;SDS011;41089;51.448;6.604;2023-04-29T02:00:24;83.17;;;40.07;;
55220;SDS011;41089;51.448;6.604;2023-04-29T02:06:24;87.30;;;43.90;;
55220;SDS011;41089;51.448;6.604;2023-04-29T02:12:25;83.70;;;43.55;;
55220;SDS011;41089;51.448;6.604;2023-04-29T02:18:25;77.10;;;40.75;;
55220;SDS011;41089;51.448;6.604;2023-04-29T02:24:26;76.28;;;43.00;;
55220;SDS011;41089;51.448;6.604;2023-04-29T02:30:26;70.78;;;41.08;;
55220;SDS011;41089;51.448;6.604;2023-04-29T02:36:27;62.88;;;36.38;;
55220;SDS011;41089;51.448;6.604;2023-04-29T02:42:27;63.50;;;37.10;;
55220;SDS011;41089;51.448;6.604;2023-04-29T02:48:28;56.30;;;33.15;;
55220;SDS011;41089;51.448;6.604;2023-04-29T02:54:28;57.17;;;33.07;;
55220;SDS011;41089;51.448;6.604;2023-04-29T03:00:29;50.60;;;30.17;;
55220;SDS011;41089;51.448;6.604;2023-04-29T03:06:29;47.20;;;28.13;;
55220;SDS011;41089;51.448;6.604;2023-04-29T03:12:30;43.97;;;26.67;;
55220;SDS011;41089;51.448;6.604;2023-04-29T03:18:30;45.17;;;28.60;;
55220;SDS011;41089;51.448;6.604;2023-04-29T03:24:31;40.17;;;27.65;;
55220;SDS011;41089;51.448;6.604;2023-04-29T03:30:32;40.45;;;25.02;;
55220;SDS011;41089;51.448;6.604;2023-04-29T03:36:33;43.75;;;26.23;;
55220;SDS011;41089;51.448;6.604;2023-04-29T03:42:33;39.30;;;26.10;;
55220;SDS011;41089;51.448;6.604;2023-04-29T03:48:34;35.97;;;23.63;;
55220;SDS011;41089;51.448;6.604;2023-04-29T03:54:36;35.72;;;23.63;;
55220;SDS011;41089;51.448;6.604;2023-04-29T04:00:37;35.08;;;23.55;;
55220;SDS011;41089;51.448;6.604;2023-04-29T04:06:37;39.95;;;25.33;;
55220;SDS011;41089;51.448;6.604;2023-04-29T04:12:38;34.93;;;23.77;;
55220;SDS011;41089;51.448;6.604;2023-04-29T04:18:38;36.10;;;22.85;;
55220;SDS011;41089;51.448;6.604;2023-04-29T04:24:39;30.35;;;20.65;;
55220;SDS011;41089;51.448;6.604;2023-04-29T04:30:40;27.60;;;20.85;;
55220;SDS011;41089;51.448;6.604;2023-04-29T04:36:40;32.08;;;21.88;;
55220;SDS011;41089;51.448;6.604;2023-04-29T04:42:41;33.35;;;23.17;;
55220;SDS011;41089;51.448;6.604;2023-04-29T04:48:41;34.30;;;21.67;;
55220;SDS011;41089;51.448;6.604;2023-04-29T04:54:43;30.48;;;21.42;;
55220;SDS011;41089;51.448;6.604;2023-04-29T05:00:45;30.45;;;20.42;;
55220;SDS011;41089;51.448;6.604;2023-04-29T05:06:45;29.17;;;22.05;;
55220;SDS011;41089;51.448;6.604;2023-04-29T05:12:46;28.52;;;19.65;;
55220;SDS011;41089;51.448;6.604;2023-04-29T05:18:47;29.00;;;21.17;;
55220;SDS011;41089;51.448;6.604;2023-04-29T05:24:47;30.38;;;20.88;;
55220;SDS011;41089;51.448;6.604;2023-04-29T05:30:52;30.00;;;20.07;;
55220;SDS011;41089;51.448;6.604;2023-04-29T05:36:53;28.27;;;20.08;;
55220;SDS011;41089;51.448;6.604;2023-04-29T05:42:53;29.10;;;21.65;;
55220;SDS011;41089;51.448;6.604;2023-04-29T05:48:54;27.27;;;20.03;;
55220;SDS011;41089;51.448;6.604;2023-04-29T05:54:54;25.60;;;19.47;;
55220;SDS011;41089;51.448;6.604;2023-04-29T06:00:54;29.55;;;19.42;;
55220;SDS011;41089;51.448;6.604;2023-04-29T06:06:55;29.05;;;19.23;;
55220;SDS011;41089;51.448;6.604;2023-04-29T06:12:56;26.35;;;19.73;;
55220;SDS011;41089;51.448;6.604;2023-04-29T06:18:56;25.10;;;17.25;;
55220;SDS011;41089;51.448;6.604;2023-04-29T06:24:57;26.13;;;18.40;;
55220;SDS011;41089;51.448;6.604;2023-04-29T06:30:57;23.00;;;18.70;;
55220;SDS011;41089;51.448;6.604;2023-04-29T06:36:58;26.98;;;18.65;;
55220;SDS011;41089;51.448;6.604;2023-04-29T06:42:58;24.38;;;16.88;;
55220;SDS011;41089;51.448;6.604;2023-04-29T06:48:59;19.97;;;17.40;;
55220;SDS011;41089;51.448;6.604;2023-04-29T06:54:59;23.33;;;17.97;;
55220;SDS011;41089;51.448;6.604;2023-04-29T07:01:00;24.25;;;16.38;;
55220;SDS011;41089;51.448;6.604;2023-04-29T07:07:03;24.30;;;17.55;;
55220;SDS011;41089;51.448;6.604;2023-04-29T07:13:03;21.20;;;17.27;;
55220;SDS011;41089;51.448;6.604;2023-04-29T07:19:04;22.65;;;17.92;;
55220;SDS011;41089;51.448;6.604;2023-04-29T07:25:04;23.58;;;16.98;;
55220;SDS011;41089;51.448;6.604;2023-04-29T07:31:05;19.73;;;16.77;;
55220;SDS011;41089;51.448;6.604;2023-04-29T07:37:06;23.25;;;17.13;;
55220;SDS011;41089;51.448;6.604;2023-04-29T07:43:07;19.45;;;16.52;;
55220;SDS011;41089;51.448;6.604;2023-04-29T07:49:08;20.52;;;16.35;;
55220;SDS011;41089;51.448;6.604;2023-04-29T07:55:09;25.10;;;17.50;;
55220;SDS011;41089;51.448;6.604;2023-04-29T08:01:09;21.38;;;18.20;;
55220;SDS011;41089;51.448;6.604;2023-04-29T08:07:11;20.77;;;17.15;;
55220;SDS011;41089;51.448;6.604;2023-04-29T08:13:11;28.83;;;18.98;;
55220;SDS011;41089;51.448;6.604;2023-04-29T08:19:12;23.33;;;16.45;;
55220;SDS011;41089;51.448;6.604;2023-04-29T08:25:12;24.75;;;20.02;;
55220;SDS011;41089;51.448;6.604;2023-04-29T08:31:16;28.00;;;20.10;;
55220;SDS011;41089;51.448;6.604;2023-04-29T08:37:17;26.20;;;20.38;;
55220;SDS011;41089;51.448;6.604;2023-04-29T08:43:19;31.55;;;22.77;;
55220;SDS011;41089;51.448;6.604;2023-04-29T08:49:20;30.67;;;20.33;;
55220;SDS011;41089;51.448;6.604;2023-04-29T08:55:20;31.48;;;20.63;;
55220;SDS011;41089;51.448;6.604;2023-04-29T09:01:21;31.60;;;20.30;;
55220;SDS011;41089;51.448;6.604;2023-04-29T09:07:21;28.35;;;19.30;;
55220;SDS011;41089;51.448;6.604;2023-04-29T09:13:23;28.88;;;19.77;;
55220;SDS011;41089;51.448;6.604;2023-04-29T09:19:28;28.75;;;18.98;;
55220;SDS011;41089;51.448;6.604;2023-04-29T09:25:30;24.20;;;18.35;;
55220;SDS011;41089;51.448;6.604;2023-04-29T09:31:31;26.02;;;20.83;;
55220;SDS011;41089;51.448;6.604;2023-04-29T09:37:31;23.73;;;18.45;;
55220;SDS011;41089;51.448;6.604;2023-04-29T09:43:32;26.42;;;18.50;;
55220;SDS011;41089;51.448;6.604;2023-04-29T09:49:39;21.30;;;17.30;;
55220;SDS011;41089;51.448;6.604;2023-04-29T09:56:14;23.15;;;18.30;;
55220;SDS011;41089;51.448;6.604;2023-04-29T10:02:17;26.25;;;20.00;;
55220;SDS011;41089;51.448;6.604;2023-04-29T10:08:18;24.20;;;18.53;;
55220;SDS011;41089;51.448;6.604;2023-04-29T10:14:19;25.43;;;19.80;;
55220;SDS011;41089;51.448;6.604;2023-04-29T10:20:21;25.08;;;19.50;;
55220;SDS011;41089;51.448;6.604;2023-04-29T10:26:26;22.15;;;18.98;;
55220;SDS011;41089;51.448;6.604;2023-04-29T10:32:31;22.70;;;19.45;;
55220;SDS011;41089;51.448;6.604;2023-04-29T10:38:41;25.70;;;19.65;;
55220;SDS011;41089;51.448;6.604;2023-04-29T10:57:30;21.00;;;17.65;;
55220;SDS011;41089;51.448;6.604;2023-04-29T11:03:47;20.23;;;16.90;;
55220;SDS011;41089;51.448;6.604;2023-04-29T11:09:53;24.58;;;19.02;;
55220;SDS011;41089;51.448;6.604;2023-04-29T11:16:08;21.13;;;17.80;;
55220;SDS011;41089;51.448;6.604;2023-04-29T11:28:26;19.23;;;16.58;;
55220;SDS011;41089;51.448;6.604;2023-04-29T11:34:26;20.98;;;17.30;;
55220;SDS011;41089;51.448;6.604;2023-04-29T11:40:27;18.95;;;16.70;;
55220;SDS011;41089;51.448;6.604;2023-04-29T11:46:30;17.57;;;15.30;;
55220;SDS011;41089;51.448;6.604;2023-04-29T11:52:31;19.08;;;16.38;;
55220;SDS011;41089;51.448;6.604;2023-04-29T11:58:31;20.63;;;15.10;;
55220;SDS011;41089;51.448;6.604;2023-04-29T12:04:32;17.20;;;15.25;;
55220;SDS011;41089;51.448;6.604;2023-04-29T12:10:34;16.13;;;14.43;;
55220;SDS011;41089;51.448;6.604;2023-04-29T12:16:35;12.77;;;10.43;;
55220;SDS011;41089;51.448;6.604;2023-04-29T12:22:37;15.32;;;11.95;;
55220;SDS011;41089;51.448;6.604;2023-04-29T12:28:39;13.77;;;12.47;;
55220;SDS011;41089;51.448;6.604;2023-04-29T12:34:40;12.85;;;11.15;;
55220;SDS011;41089;51.448;6.604;2023-04-29T12:40:41;12.13;;;10.60;;
55220;SDS011;41089;51.448;6.604;2023-04-29T12:46:41;12.85;;;11.07;;
55220;SDS011;41089;51.448;6.604;2023-04-29T12:52:41;12.60;;;11.30;;
55220;SDS011;41089;51.448;6.604;2023-04-29T12:58:42;14.40;;;11.90;;
55220;SDS011;41089;51.448;6.604;2023-04-29T13:04:42;12.65;;;10.77;;
55220;SDS011;41089;51.448;6.604;2023-04-29T13:10:43;13.48;;;11.15;;
55220;SDS011;41089;51.448;6.604;2023-04-29T13:16:43;13.10;;;11.35;;
55220;SDS011;41089;51.448;6.604;2023-04-29T13:22:44;12.40;;;10.52;;
55220;SDS011;41089;51.448;6.604;2023-04-29T13:28:45;11.98;;;10.75;;
55220;SDS011;41089;51.448;6.604;2023-04-29T13:34:45;12.68;;;10.23;;
55220;SDS011;41089;51.448;6.604;2023-04-29T13:40:45;14.07;;;9.68;;
55220;SDS011;41089;51.448;6.604;2023-04-29T13:46:46;9.97;;;8.63;;
55220;SDS011;41089;51.448;6.604;2023-04-29T13:52:47;10.85;;;7.93;;
55220;SDS011;41089;51.448;6.604;2023-04-29T13:58:47;10.57;;;9.48;;
55220;SDS011;41089;51.448;6.604;2023-04-29T14:04:49;12.57;;;8.63;;
55220;SDS011;41089;51.448;6.604;2023-04-29T14:10:49;12.50;;;8.80;;
55220;SDS011;41089;51.448;6.604;2023-04-29T14:16:50;15.03;;;10.70;;
55220;SDS011;41089;51.448;6.604;2023-04-29T14:22:50;13.48;;;9.52;;
55220;SDS011;41089;51.448;6.604;2023-04-29T14:28:51;12.97;;;9.23;;
55220;SDS011;41089;51.448;6.604;2023-04-29T14:34:56;10.38;;;8.18;;
55220;SDS011;41089;51.448;6.604;2023-04-29T14:40:57;8.07;;;7.25;;
55220;SDS011;41089;51.448;6.604;2023-04-29T14:46:58;8.52;;;7.72;;
55220;SDS011;41089;51.448;6.604;2023-04-29T14:52:58;11.03;;;8.30;;
55220;SDS011;41089;51.448;6.604;2023-04-29T14:59:00;9.73;;;7.40;;
55220;SDS011;41089;51.448;6.604;2023-04-29T15:05:00;13.20;;;7.97;;
55220;SDS011;41089;51.448;6.604;2023-04-29T15:11:03;8.40;;;7.60;;
55220;SDS011;41089;51.448;6.604;2023-04-29T15:17:03;11.98;;;8.05;;
55220;SDS011;41089;51.448;6.604;2023-04-29T15:23:04;9.88;;;7.80;;
55220;SDS011;41089;51.448;6.604;2023-04-29T15:29:05;10.98;;;9.00;;
55220;SDS011;41089;51.448;6.604;2023-04-29T15:35:06;10.40;;;8.15;;
55220;SDS011;41089;51.448;6.604;2023-04-29T15:41:07;9.95;;;8.02;;
55220;SDS011;41089;51.448;6.604;2023-04-29T15:47:07;12.00;;;10.15;;
55220;SDS011;41089;51.448;6.604;2023-04-29T15:53:08;9.37;;;7.23;;
55220;SDS011;41089;51.448;6.604;2023-04-29T15:59:08;8.90;;;7.40;;
55220;SDS011;41089;51.448;6.604;2023-04-29T16:05:08;9.50;;;7.43;;
55220;SDS011;41089;51.448;6.604;2023-04-29T16:11:09;9.13;;;7.15;;
55220;SDS011;41089;51.448;6.604;2023-04-29T16:17:09;7.83;;;6.60;;
55220;SDS011;41089;51.448;6.604;2023-04-29T16:23:10;8.43;;;7.00;;
55220;SDS011;41089;51.448;6.604;2023-04-29T16:29:10;7.67;;;5.80;;
55220;SDS011;41089;51.448;6.604;2023-04-29T16:35:12;8.20;;;5.70;;
55220;SDS011;41089;51.448;6.604;2023-04-29T16:41:12;7.97;;;6.47;;
55220;SDS011;41089;51.448;6.604;2023-04-29T16:47:13;8.77;;;7.07;;
55220;SDS011;41089;51.448;6.604;2023-04-29T16:53:13;8.10;;;6.90;;
55220;SDS011;41089;51.448;6.604;2023-04-29T16:59:14;9.32;;;6.35;;
55220;SDS011;41089;51.448;6.604;2023-04-29T17:05:14;5.83;;;5.23;;
55220;SDS011;41089;51.448;6.604;2023-04-29T17:11:15;9.43;;;7.10;;
55220;SDS011;41089;51.448;6.604;2023-04-29T17:17:17;8.35;;;6.45;;
55220;SDS011;41089;51.448;6.604;2023-04-29T17:23:17;7.53;;;5.50;;
55220;SDS011;41089;51.448;6.604;2023-04-29T17:29:18;7.85;;;5.72;;
55220;SDS011;41089;51.448;6.604;2023-04-29T17:35:18;7.88;;;6.15;;
55220;SDS011;41089;51.448;6.604;2023-04-29T17:41:19;6.20;;;5.60;;
55220;SDS011;41089;51.448;6.604;2023-04-29T17:47:19;9.75;;;7.05;;
55220;SDS011;41089;51.448;6.604;2023-04-29T17:53:20;8.57;;;6.50;;
55220;SDS011;41089;51.448;6.604;2023-04-29T17:59:21;10.70;;;6.33;;
55220;SDS011;41089;51.448;6.604;2023-04-29T18:05:21;7.97;;;6.40;;
55220;SDS011;41089;51.448;6.604;2023-04-29T18:11:21;10.40;;;5.80;;
55220;SDS011;41089;51.448;6.604;2023-04-29T18:17:23;8.07;;;5.20;;
55220;SDS011;41089;51.448;6.604;2023-04-29T18:23:23;8.23;;;5.40;;
55220;SDS011;41089;51.448;6.604;2023-04-29T18:29:24;9.43;;;5.20;;
55220;SDS011;41089;51.448;6.604;2023-04-29T18:35:25;7.55;;;6.03;;
55220;SDS011;41089;51.448;6.604;2023-04-29T18:41:25;6.35;;;4.72;;
55220;SDS011;41089;51.448;6.604;2023-04-29T18:47:26;9.13;;;5.65;;
55220;SDS011;41089;51.448;6.604;2023-04-29T18:53:26;8.17;;;6.53;;
55220;SDS011;41089;51.448;6.604;2023-04-29T18:59:27;8.00;;;7.23;;
55220;SDS011;41089;51.448;6.604;2023-04-29T19:05:28;10.80;;;7.53;;
55220;SDS011;41089;51.448;6.604;2023-04-29T19:11:29;11.05;;;7.55;;
55220;SDS011;41089;51.448;6.604;2023-04-29T19:17:30;9.57;;;7.03;;
55220;SDS011;41089;51.448;6.604;2023-04-29T19:23:31;8.75;;;7.45;;
55220;SDS011;41089;51.448;6.604;2023-04-29T19:29:31;8.52;;;7.00;;
55220;SDS011;41089;51.448;6.604;2023-04-29T19:35:32;9.13;;;6.97;;
55220;SDS011;41089;51.448;6.604;2023-04-29T19:41:32;9.75;;;7.22;;
55220;SDS011;41089;51.448;6.604;2023-04-29T19:47:33;7.20;;;6.27;;
55220;SDS011;41089;51.448;6.604;2023-04-29T19:53:37;8.90;;;7.05;;
55220;SDS011;41089;51.448;6.604;2023-04-29T19:59:38;9.18;;;6.93;;
55220;SDS011;41089;51.448;6.604;2023-04-29T20:05:38;10.60;;;8.03;;
55220;SDS011;41089;51.448;6.604;2023-04-29T20:11:39;8.73;;;7.32;;
55220;SDS011;41089;51.448;6.604;2023-04-29T20:17:40;8.80;;;6.67;;
55220;SDS011;41089;51.448;6.604;2023-04-29T20:23:40;10.77;;;7.37;;
55220;SDS011;41089;51.448;6.604;2023-04-29T20:29:41;10.38;;;7.55;;
55220;SDS011;41089;51.448;6.604;2023-04-29T20:35:42;8.98;;;7.43;;
55220;SDS011;41089;51.448;6.604;2023-04-29T20:41:43;7.95;;;7.13;;
55220;SDS011;41089;51.448;6.604;2023-04-29T20:47:43;7.85;;;6.75;;
55220;SDS011;41089;51.448;6.604;2023-04-29T20:53:44;9.68;;;7.85;;
55220;SDS011;41089;51.448;6.604;2023-04-29T20:59:44;8.93;;;7.57;;
55220;SDS011;41089;51.448;6.604;2023-04-29T21:05:45;8.15;;;6.45;;
55220;SDS011;41089;51.448;6.604;2023-04-29T21:17:46;8.20;;;7.40;;
55220;SDS011;41089;51.448;6.604;2023-04-29T21:23:46;11.05;;;8.55;;
55220;SDS011;41089;51.448;6.604;2023-04-29T21:29:47;11.85;;;8.68;;
55220;SDS011;41089;51.448;6.604;2023-04-29T21:35:47;11.52;;;9.55;;
55220;SDS011;41089;51.448;6.604;2023-04-29T21:41:50;10.38;;;7.93;;
55220;SDS011;41089;51.448;6.604;2023-04-29T21:47:51;8.30;;;6.90;;
55220;SDS011;41089;51.448;6.604;2023-04-29T21:53:51;10.05;;;7.75;;
55220;SDS011;41089;51.448;6.604;2023-04-29T21:59:52;12.63;;;10.55;;
55220;SDS011;41089;51.448;6.604;2023-04-29T22:05:52;16.27;;;11.65;;
55220;SDS011;41089;51.448;6.604;2023-04-29T22:11:52;10.63;;;8.70;;
55220;SDS011;41089;51.448;6.604;2023-04-29T22:17:53;11.53;;;7.83;;
55220;SDS011;41089;51.448;6.604;2023-04-29T22:23:53;10.52;;;6.80;;
55220;SDS011;41089;51.448;6.604;2023-04-29T22:29:54;13.45;;;8.50;;
55220;SDS011;41089;51.448;6.604;2023-04-29T22:35:55;10.83;;;8.53;;
55220;SDS011;41089;51.448;6.604;2023-04-29T22:41:55;9.63;;;8.63;;
55220;SDS011;41089;51.448;6.604;2023-04-29T22:47:56;12.55;;;8.07;;
55220;SDS011;41089;51.448;6.604;2023-04-29T22:53:56;12.02;;;9.10;;
55220;SDS011;41089;51.448;6.604;2023-04-29T22:59:57;11.10;;;9.13;;
55220;SDS011;41089;51.448;6.604;2023-04-29T23:05:57;10.38;;;8.85;;
55220;SDS011;41089;51.448;6.604;2023-04-29T23:11:58;9.32;;;8.30;;
55220;SDS011;41089;51.448;6.604;2023-04-29T23:17:58;10.47;;;9.10;;
55220;SDS011;41089;51.448;6.604;2023-04-29T23:23:59;9.80;;;8.13;;
55220;SDS011;41089;51.448;6.604;2023-04-29T23:29:59;13.27;;;8.87;;
55220;SDS011;41089;51.448;6.604;2023-04-29T23:36:00;9.73;;;8.63;;
55220;SDS011;41089;51.448;6.604;2023-04-29T23:42:00;9.57;;;8.27;;
55220;SDS011;41089;51.448;6.604;2023-04-29T23:48:01;12.73;;;8.27;;
55220;SDS011;41089;51.448;6.604;2023-04-29T23:54:02;12.45;;;9.38;;
